UAL795 KEWR-KTPA
Flight info
| Callsign | UAL795 |
|---|---|
| Flight time | N/A |
| Altitude | 38000 |
| Route | ELVAE NECCK WHITE Q409 PUPYY BAAMF DADES2 |
| Aircraft | B38M/M-SDE1FGHILORVWXY/HB1 |
Departure
| Time | 2026-04-30 06:12 |
|---|---|
| Airport | Newark Liberty International Airport (KEWR) |
Arrival
| Time | N/A |
|---|---|
| Airport | Tampa International Airport (KTPA) |
| Time | Latitude | Longitude | Altitude | Speed | Heading |
|---|---|---|---|---|---|
| 2026-04-30 05:21 | 40.68423 | -74.18235 | 28 ft | 0 kts | 214° |
| 2026-04-30 05:55 | 40.68441 | -74.18219 | 26 ft | 4 kts | 214° |
| 2026-04-30 05:56 | 40.68457 | -74.18206 | 28 ft | 4 kts | 204° |
| 2026-04-30 05:56 | 40.68482 | -74.18200 | 26 ft | 4 kts | 165° |
| 2026-04-30 05:56 | 40.68498 | -74.18216 | 26 ft | 1 kts | 116° |
| 2026-04-30 06:03 | 40.68500 | -74.18221 | 29 ft | 5 kts | 116° |
| 2026-04-30 06:03 | 40.68501 | -74.18223 | 29 ft | 0 kts | 116° |
| 2026-04-30 06:05 | 40.68500 | -74.18221 | 29 ft | 1 kts | 116° |
| 2026-04-30 06:05 | 40.68481 | -74.18173 | 26 ft | 12 kts | 122° |
| 2026-04-30 06:05 | 40.68418 | -74.18039 | 27 ft | 22 kts | 116° |
| 2026-04-30 06:06 | 40.68340 | -74.17826 | 25 ft | 28 kts | 115° |
| 2026-04-30 06:06 | 40.68285 | -74.17648 | 26 ft | 17 kts | 81° |
| 2026-04-30 06:06 | 40.68360 | -74.17583 | 28 ft | 14 kts | 23° |
| 2026-04-30 06:06 | 40.68470 | -74.17513 | 25 ft | 21 kts | 26° |
| 2026-04-30 06:07 | 40.68614 | -74.17423 | 26 ft | 23 kts | 25° |
| 2026-04-30 06:07 | 40.68759 | -74.17330 | 27 ft | 23 kts | 26° |
| 2026-04-30 06:07 | 40.68893 | -74.17244 | 25 ft | 20 kts | 26° |
| 2026-04-30 06:07 | 40.69022 | -74.17162 | 25 ft | 21 kts | 25° |
| 2026-04-30 06:08 | 40.69150 | -74.17081 | 27 ft | 20 kts | 26° |
| 2026-04-30 06:08 | 40.69275 | -74.17001 | 26 ft | 20 kts | 25° |
| 2026-04-30 06:08 | 40.69398 | -74.16924 | 25 ft | 19 kts | 26° |
| 2026-04-30 06:08 | 40.69519 | -74.16845 | 25 ft | 20 kts | 26° |
| 2026-04-30 06:09 | 40.69547 | -74.16827 | 25 ft | 20 kts | 26° |
| 2026-04-30 06:09 | 40.69643 | -74.16765 | 27 ft | 20 kts | 24° |
| 2026-04-30 06:09 | 40.69768 | -74.16689 | 27 ft | 20 kts | 26° |
| 2026-04-30 06:09 | 40.69862 | -74.16628 | 25 ft | 15 kts | 25° |
| 2026-04-30 06:10 | 40.69954 | -74.16571 | 24 ft | 15 kts | 25° |
| 2026-04-30 06:10 | 40.70048 | -74.16509 | 23 ft | 15 kts | 27° |
| 2026-04-30 06:10 | 40.70067 | -74.16417 | 22 ft | 11 kts | 92° |
| 2026-04-30 06:10 | 40.70026 | -74.16364 | 22 ft | 10 kts | 192° |
| 2026-04-30 06:11 | 40.69970 | -74.16400 | 21 ft | 1 kts | 206° |
| 2026-04-30 06:11 | 40.69969 | -74.16400 | 21 ft | 0 kts | 206° |
| 2026-04-30 06:12 | 40.69956 | -74.16408 | 21 ft | 19 kts | 206° |
| 2026-04-30 06:12 | 40.69554 | -74.16664 | 27 ft | 106 kts | 206° |
| 2026-04-30 06:12 | 40.68669 | -74.17218 | 96 ft | 168 kts | 206° |
| 2026-04-30 06:12 | 40.67528 | -74.17959 | 683 ft | 194 kts | 205° |
| 2026-04-30 06:13 | 40.66289 | -74.18802 | 1781 ft | 206 kts | 206° |
| 2026-04-30 06:13 | 40.65438 | -74.19443 | 2400 ft | 221 kts | 208° |
| 2026-04-30 06:13 | 40.64989 | -74.19792 | 2754 ft | 224 kts | 208° |
| 2026-04-30 06:13 | 40.64492 | -74.20171 | 3192 ft | 227 kts | 209° |
| 2026-04-30 06:14 | 40.63105 | -74.21206 | 4433 ft | 231 kts | 212° |
| 2026-04-30 06:14 | 40.61695 | -74.22252 | 5583 ft | 237 kts | 213° |
| 2026-04-30 06:14 | 40.61228 | -74.22604 | 5958 ft | 239 kts | 214° |
| 2026-04-30 06:14 | 40.60789 | -74.22935 | 6323 ft | 240 kts | 214° |
| 2026-04-30 06:15 | 40.59302 | -74.24073 | 7242 ft | 250 kts | 214° |
| 2026-04-30 06:15 | 40.57792 | -74.25244 | 8353 ft | 255 kts | 213° |
| 2026-04-30 06:15 | 40.56244 | -74.26413 | 9334 ft | 263 kts | 212° |
| 2026-04-30 06:15 | 40.54508 | -74.27246 | 10339 ft | 276 kts | 191° |
| 2026-04-30 06:16 | 40.52518 | -74.26862 | 10935 ft | 306 kts | 161° |
| 2026-04-30 06:16 | 40.50526 | -74.25688 | 11611 ft | 321 kts | 163° |
| 2026-04-30 06:16 | 40.48408 | -74.24590 | 12321 ft | 333 kts | 163° |
| 2026-04-30 06:16 | 40.46203 | -74.23468 | 13163 ft | 339 kts | 164° |
| 2026-04-30 06:17 | 40.44017 | -74.22370 | 14027 ft | 344 kts | 164° |
| 2026-04-30 06:17 | 40.41762 | -74.21245 | 14817 ft | 349 kts | 165° |
| 2026-04-30 06:17 | 40.39477 | -74.20111 | 15605 ft | 353 kts | 165° |
| 2026-04-30 06:17 | 40.37164 | -74.18965 | 16372 ft | 358 kts | 165° |
| 2026-04-30 06:18 | 40.34815 | -74.17802 | 17122 ft | 363 kts | 165° |
| 2026-04-30 06:18 | 40.32420 | -74.16746 | 17843 ft | 361 kts | 175° |
| 2026-04-30 06:18 | 40.29949 | -74.16657 | 18478 ft | 354 kts | 194° |
| 2026-04-30 06:18 | 40.27527 | -74.17249 | 19072 ft | 356 kts | 197° |
| 2026-04-30 06:19 | 40.25088 | -74.17905 | 19715 ft | 359 kts | 198° |
| 2026-04-30 06:19 | 40.22633 | -74.18599 | 20283 ft | 364 kts | 198° |
| 2026-04-30 06:19 | 40.20147 | -74.19322 | 20922 ft | 367 kts | 198° |
| 2026-04-30 06:19 | 40.17641 | -74.20062 | 21538 ft | 371 kts | 198° |
| 2026-04-30 06:20 | 40.15116 | -74.20815 | 22156 ft | 374 kts | 199° |
| 2026-04-30 06:20 | 40.12568 | -74.21576 | 22766 ft | 377 kts | 199° |
| 2026-04-30 06:20 | 40.09997 | -74.22345 | 23370 ft | 381 kts | 199° |
| 2026-04-30 06:20 | 40.07408 | -74.23119 | 23867 ft | 384 kts | 199° |
| 2026-04-30 06:21 | 40.04788 | -74.23902 | 24356 ft | 387 kts | 199° |
| 2026-04-30 06:21 | 40.02159 | -74.24714 | 24784 ft | 389 kts | 203° |
| 2026-04-30 06:21 | 39.99762 | -74.26209 | 25200 ft | 380 kts | 220° |
| 2026-04-30 06:21 | 39.97596 | -74.28203 | 25625 ft | 384 kts | 220° |
| 2026-04-30 06:22 | 39.95412 | -74.30219 | 26100 ft | 385 kts | 221° |
| 2026-04-30 06:22 | 39.93966 | -74.31570 | 26418 ft | 387 kts | 221° |